• Join FlightAware (Why Join?)
  • Login
  • US Flag 
05:44AM EDT


 

Airport Tracker/Info


-or-


 

Live Flight TrackerFlight Track Log ✈ SKW5515 ✈ 18-Mar-2014 ✈ KDEN - KMSO

Flight Track Log - Related Links

Times and Time Zones

All times are in EDT time to prevent confusion due to time zone crossing. See the SKW5515 flight status page for this flight to view local times or setup timezone preferences in your user account.

Time Position Orientation Groundspeed Altitude Reporting Facility
EDT Latitude Longitude Course Direction KTS MPH feet Rate Location/Type
12:31AM 40.1622 -104.7636 347° North  Level FlightAware Approximate
12:32AM 40.2668 -104.7950 347° North  Level FlightAware Approximate
12:33AM 40.3709 -104.8292 346° North  Level FlightAware Approximate
12:34AM 40.4750 -104.8638 346° North  Level FlightAware Approximate
12:35AM 40.5795 -104.8931 346° North  Level FlightAware Approximate
12:36AM 40.6836 -104.9278 346° North  Level FlightAware Approximate
12:37AM 40.7863 -104.9681 339° North  Level FlightAware Approximate
12:38AM 40.8885 -105.0096 349° North  Level FlightAware Approximate
12:39AM 40.9939 -105.0366 347° North  Level FlightAware Approximate
12:40AM 41.0984 -105.0687 347° North  Level FlightAware Approximate
12:41AM 41.2029 -105.1010 346° North  Level FlightAware Approximate
12:42AM 41.3069 -105.1362 343° North  Level FlightAware Approximate
12:43AM 41.4094 -105.1788 343° North  Level FlightAware Approximate
12:44AM 41.5120 -105.2207 346° North  Level FlightAware Approximate
12:45AM 41.5937 -105.3032 310° West  Level FlightAware Approximate
12:46AM 41.6619 -105.4141 309° West  Level FlightAware Approximate
12:47AM 41.7290 -105.5262 309° West  Level FlightAware Approximate
12:48AM 41.7946 -105.6401 308° West  Level FlightAware Approximate
12:49AM 41.8599 -105.7544 308° West  Level FlightAware Approximate
12:50AM 41.9251 -105.8689 307° West  Level FlightAware Approximate
12:51AM 41.9889 -105.9850 306° West  Level FlightAware Approximate
12:52AM 42.0522 -106.1016 306° West  Level FlightAware Approximate
12:53AM 42.1152 -106.2186 306° West  Level FlightAware Approximate
12:54AM 42.1798 -106.3343 308° West  Level FlightAware Approximate
12:55AM 42.2462 -106.4481 308° West  Level FlightAware Approximate
12:56AM 42.3083 -106.5662 304° West  Level FlightAware Approximate
12:57AM 42.3686 -106.6864 304° West  Level FlightAware Approximate
12:58AM 42.4287 -106.8068 304° West  Level FlightAware Approximate
12:59AM 42.4891 -106.9270 307° West  Level FlightAware Approximate
01:00AM 42.5537 -107.0433 307° West  Level FlightAware Approximate
01:01AM 42.6181 -107.1599 307° West  Level FlightAware Approximate
01:02AM 42.6824 -107.2767 307° West  Level FlightAware Approximate
01:03AM 42.7466 -107.3938 307° West  Level FlightAware Approximate
01:04AM 42.8107 -107.5111 307° West  Level FlightAware Approximate
01:05AM 42.8738 -107.6294 305° West  Level FlightAware Approximate
01:06AM 42.9356 -107.7492 305° West  Level FlightAware Approximate
01:07AM 42.9973 -107.8692 305° West  Level FlightAware Approximate
01:08AM 43.0589 -107.9894 305° West  Level FlightAware Approximate
01:09AM 43.1203 -108.1099 305° West  Level FlightAware Approximate
01:10AM 43.1816 -108.2307 305° West  Level FlightAware Approximate
01:11AM 43.2438 -108.3507 306° West  Level FlightAware Approximate
01:12AM 43.3072 -108.4696 306° West  Level FlightAware Approximate
01:13AM 43.3700 -108.5893 305° West  Level FlightAware Approximate
01:14AM 43.4313 -108.7105 305° West  Level FlightAware Approximate
01:15AM 43.4926 -108.8319 305° West  Level FlightAware Approximate
01:16AM 43.5537 -108.9536 305° West  Level FlightAware Approximate
01:17AM 43.6147 -109.0755 305° West  Level FlightAware Approximate
01:18AM 43.6755 -109.1976 305° West  Level FlightAware Approximate
01:19AM 43.7363 -109.3200 305° West  Level FlightAware Approximate
01:20AM 43.7968 -109.4427 304° West  Level FlightAware Approximate
01:21AM 43.8573 -109.5656 304° West  Level FlightAware Approximate
01:22AM 43.9176 -109.6888 304° West  Level FlightAware Approximate
01:23AM 43.9778 -109.8121 304° West  Level FlightAware Approximate
01:24AM 44.0379 -109.9358 304° West  Level FlightAware Approximate
01:25AM 44.0978 -110.0597 304° West  Level FlightAware Approximate
01:26AM 44.1576 -110.1839 304° West  Level FlightAware Approximate
01:27AM 44.2173 -110.3083 304° West  Level FlightAware Approximate
01:28AM 44.2768 -110.4329 304° West  Level FlightAware Approximate
01:29AM 44.3361 -110.5580 303° West  Level FlightAware Approximate
01:30AM 44.3950 -110.6835 303° West  Level FlightAware Approximate
01:31AM 44.4537 -110.8093 303° West  Level FlightAware Approximate
01:32AM 44.5123 -110.9353 303° West  Level FlightAware Approximate
01:33AM 44.5707 -111.0616 303° West  Level FlightAware Approximate
01:34AM 44.6291 -111.1881 303° West  Level FlightAware Approximate
01:35AM 44.6872 -111.3149 303° West  Level FlightAware Approximate
01:36AM 44.7453 -111.4419 303° West  Level FlightAware Approximate
01:37AM 44.8032 -111.5692 303° West  Level FlightAware Approximate
01:38AM 44.8609 -111.6968 303° West  Level FlightAware Approximate
01:39AM 44.9185 -111.8246 303° West  Level FlightAware Approximate
01:40AM 44.9760 -111.9526 302° West  Level FlightAware Approximate
01:41AM 45.0333 -112.0810 302° West  Level FlightAware Approximate
01:42AM 45.0905 -112.2095 302° West  Level FlightAware Approximate
01:43AM 45.1475 -112.3384 302° West  Level FlightAware Approximate
01:44AM 45.2044 -112.4675 302° West  Level FlightAware Approximate
01:45AM 45.2733 -112.5820 319° Northwest  Level FlightAware Approximate
01:46AM 45.3547 -112.6815 319° Northwest  Level FlightAware Approximate
01:47AM 45.4334 -112.7853 316° Northwest  Level FlightAware Approximate
01:48AM 45.5106 -112.8916 316° Northwest  Level FlightAware Approximate
01:49AM 45.5881 -112.9977 316° Northwest  Level FlightAware Approximate
01:50AM 45.6655 -113.1040 316° Northwest  Level FlightAware Approximate
01:51AM 45.7428 -113.2106 316° Northwest  Level FlightAware Approximate
01:52AM 45.8207 -113.3164 317° Northwest  Level FlightAware Approximate
01:53AM 45.9012 -113.4179 325° Northwest  Level FlightAware Approximate
01:54AM 45.9805 -113.5208 314° West  Level FlightAware Approximate
01:55AM 46.0569 -113.6293 316° Northwest  Level FlightAware Approximate
01:56AM 46.1340 -113.7370 316° Northwest  Level FlightAware Approximate
01:57AM 46.2110 -113.8450 316° Northwest  Level FlightAware Approximate
01:58AM 46.2883 -113.9526 317° Northwest  Level FlightAware Approximate
01:59AM 46.3661 -114.0596 317° Northwest  Level FlightAware Approximate
02:00AM 46.4415 -114.1704 314° West  Level FlightAware Approximate
02:01AM 46.5161 -114.2825 314° West  Level FlightAware Approximate
02:02AM 46.5952 -114.3879 318° Northwest  Level FlightAware Approximate
02:03AM 46.6742 -114.4937 317° Northwest  Level FlightAware Approximate
02:04AM 46.7523 -114.6010 317° Northwest  Level FlightAware Approximate
02:05AM 46.8405 -114.6515 14° North  Level FlightAware Approximate
02:06AM 46.9446 -114.6133 12° North  Level FlightAware Approximate
02:07AM 47.0497 -114.5818 12° North  Level FlightAware Approximate
02:08AM 47.1530 -114.5402 19° North  Level FlightAware Approximate
02:09AM 47.1079 -114.4275 129° Southeast  Level FlightAware Approximate
02:10AM 47.0367 -114.3098 133° Southeast  Level FlightAware Approximate
02:11AM 46.9633 -114.1950 134° Southeast  Level FlightAware Approximate
02:12AM 46.9163 -114.0906 North  Level Estimated